createdAt,value
2022-12-18T00:02:14.513Z,25.70
2022-12-18T00:04:36.375Z,25.27
2022-12-18T00:06:58.206Z,24.40
2022-12-18T00:09:20.570Z,24.55
2022-12-18T00:11:42.826Z,24.37
2022-12-18T00:14:04.853Z,24.00
2022-12-18T00:16:29.108Z,23.80
2022-12-18T00:18:56.220Z,25.20
2022-12-18T00:21:19.081Z,24.70
2022-12-18T00:23:44.033Z,23.33
2022-12-18T00:26:16.868Z,23.60
2022-12-18T00:28:38.894Z,24.67
2022-12-18T00:31:16.742Z,24.27
2022-12-18T00:33:40.059Z,25.17
2022-12-18T00:36:14.748Z,23.65
2022-12-18T00:38:37.519Z,25.43
2022-12-18T00:40:59.660Z,22.13
2022-12-18T00:43:21.508Z,21.60
2022-12-18T00:45:43.373Z,22.95
2022-12-18T00:48:06.203Z,22.40
2022-12-18T00:50:28.304Z,23.75
2022-12-18T00:52:50.421Z,24.10
2022-12-18T00:55:13.238Z,27.40
2022-12-18T00:57:35.244Z,25.30
2022-12-18T00:59:57.021Z,25.20
2022-12-18T01:02:19.062Z,26.08
2022-12-18T01:04:40.934Z,27.30
2022-12-18T01:07:02.723Z,26.23
2022-12-18T01:09:24.659Z,38.53
2022-12-18T01:11:47.475Z,29.52
2022-12-18T01:14:09.742Z,29.55
2022-12-18T01:16:33.108Z,27.63
2022-12-18T01:18:56.115Z,22.70
2022-12-18T01:21:18.090Z,21.92
2022-12-18T01:23:40.907Z,20.77
2022-12-18T01:26:13.874Z,21.02
2022-12-18T01:28:36.405Z,22.23
2022-12-18T01:30:58.387Z,21.80
2022-12-18T01:33:20.215Z,22.02
2022-12-18T01:35:43.638Z,22.45
2022-12-18T01:38:05.502Z,23.38
2022-12-18T01:40:27.301Z,22.13
2022-12-18T01:42:54.837Z,22.45
2022-12-18T01:45:16.569Z,21.23
2022-12-18T01:47:56.200Z,22.95
2022-12-18T01:50:44.072Z,22.88
2022-12-18T01:53:09.143Z,21.42
2022-12-18T01:55:39.482Z,21.50
2022-12-18T01:58:02.130Z,19.98
2022-12-18T02:00:27.308Z,20.33
2022-12-18T02:02:50.513Z,19.40
2022-12-18T02:05:20.790Z,20.42
2022-12-18T02:08:10.221Z,19.40
2022-12-18T02:10:41.353Z,19.92
2022-12-18T02:13:50.368Z,19.50
2022-12-18T02:16:36.428Z,18.98
2022-12-18T02:19:08.031Z,20.25
2022-12-18T02:22:04.317Z,18.80
2022-12-18T02:25:34.045Z,18.30
2022-12-18T02:28:01.659Z,17.67
2022-12-18T02:30:24.378Z,18.10
2022-12-18T02:32:53.873Z,19.08
2022-12-18T02:35:25.161Z,17.42
2022-12-18T02:37:50.606Z,19.25
2022-12-18T02:40:15.172Z,17.42
2022-12-18T02:42:37.061Z,15.82
2022-12-18T02:45:01.671Z,17.42
2022-12-18T02:47:30.483Z,19.42
2022-12-18T02:50:26.052Z,19.50
2022-12-18T02:53:23.106Z,18.45
2022-12-18T02:56:30.923Z,18.17
2022-12-18T02:59:14.245Z,18.08
2022-12-18T03:02:03.887Z,15.93
2022-12-18T03:04:49.775Z,16.15
2022-12-18T03:07:28.648Z,16.88
2022-12-18T03:09:55.742Z,16.73
2022-12-18T03:12:45.948Z,15.63
2022-12-18T03:15:18.076Z,16.08
2022-12-18T03:17:49.924Z,16.60
2022-12-18T03:20:20.022Z,15.35
2022-12-18T03:22:47.875Z,16.52
2022-12-18T03:25:15.669Z,15.35
2022-12-18T03:27:47.424Z,15.88
2022-12-18T03:30:14.656Z,17.73
2022-12-18T03:32:57.582Z,15.32
2022-12-18T03:35:31.383Z,15.77
2022-12-18T03:37:53.656Z,16.23
2022-12-18T03:40:15.960Z,16.48
2022-12-18T03:42:53.311Z,16.52
2022-12-18T03:45:33.687Z,14.68
2022-12-18T03:48:06.996Z,14.48
2022-12-18T03:50:57.897Z,15.07
2022-12-18T03:53:32.446Z,14.45
2022-12-18T03:55:56.840Z,13.45
2022-12-18T03:58:27.552Z,14.70
2022-12-18T04:01:03.787Z,15.85
2022-12-18T04:03:30.027Z,13.80
2022-12-18T04:05:56.297Z,15.00
2022-12-18T04:08:19.760Z,13.57
2022-12-18T04:10:49.895Z,14.93
2022-12-18T04:13:12.102Z,13.73
2022-12-18T04:15:37.313Z,14.20
2022-12-18T04:18:01.211Z,15.15
2022-12-18T04:20:31.168Z,14.25
2022-12-18T04:22:54.301Z,14.70
2022-12-18T04:25:16.452Z,13.90
2022-12-18T04:27:50.185Z,14.73
2022-12-18T04:30:12.618Z,13.75
2022-12-18T04:32:35.551Z,13.35
2022-12-18T04:34:57.430Z,14.32
2022-12-18T04:37:19.781Z,12.93
2022-12-18T04:39:42.431Z,13.15
2022-12-18T04:42:11.311Z,14.10
2022-12-18T04:44:33.175Z,13.82
2022-12-18T04:46:55.070Z,13.30
2022-12-18T04:49:17.939Z,13.23
2022-12-18T04:51:40.140Z,12.77
2022-12-18T04:54:02.094Z,14.15
2022-12-18T04:56:24.686Z,13.98
2022-12-18T04:58:46.717Z,13.57
2022-12-18T05:01:10.415Z,13.63
2022-12-18T05:03:32.879Z,14.07
2022-12-18T05:05:54.854Z,13.18
2022-12-18T05:08:16.822Z,12.60
2022-12-18T05:10:38.646Z,13.25
2022-12-18T05:13:01.125Z,13.13
2022-12-18T05:15:23.340Z,12.70
2022-12-18T05:17:45.606Z,14.10
2022-12-18T05:20:08.178Z,12.52
2022-12-18T05:22:29.953Z,12.90
2022-12-18T05:24:51.955Z,13.18
2022-12-18T05:27:13.763Z,13.75
2022-12-18T05:29:35.590Z,13.85
2022-12-18T05:31:57.523Z,14.18
2022-12-18T05:34:19.383Z,13.05
2022-12-18T05:36:41.223Z,13.60
2022-12-18T05:39:03.571Z,12.95
2022-12-18T05:41:26.178Z,12.52
2022-12-18T05:43:48.259Z,12.77
2022-12-18T05:46:15.889Z,12.88
2022-12-18T05:48:37.710Z,13.15
2022-12-18T05:51:08.021Z,13.57
2022-12-18T05:53:29.928Z,13.23
2022-12-18T05:55:51.785Z,14.05
2022-12-18T05:58:15.989Z,14.27
2022-12-18T06:03:03.989Z,14.63
2022-12-18T06:05:26.549Z,14.45
2022-12-18T06:07:48.425Z,13.77
2022-12-18T06:10:10.514Z,13.35
2022-12-18T06:12:34.426Z,12.82
2022-12-18T06:14:56.285Z,12.88
2022-12-18T06:17:18.181Z,15.25
2022-12-18T06:19:40.006Z,12.70
2022-12-18T06:22:01.784Z,13.95
2022-12-18T06:24:23.647Z,13.40
2022-12-18T06:26:45.446Z,13.57
2022-12-18T06:29:07.387Z,13.25
2022-12-18T06:31:29.247Z,15.13
2022-12-18T06:33:51.597Z,13.27
2022-12-18T06:36:14.716Z,14.60
2022-12-18T06:38:39.801Z,13.55
2022-12-18T06:41:06.678Z,13.88
2022-12-18T06:43:28.696Z,13.30
2022-12-18T06:45:53.612Z,14.43
2022-12-18T06:48:15.660Z,13.32
2022-12-18T06:50:37.394Z,14.00
2022-12-18T06:52:59.213Z,13.70
2022-12-18T06:55:21.194Z,14.23
2022-12-18T06:57:43.130Z,13.80
2022-12-18T07:00:07.787Z,13.15
2022-12-18T07:02:29.749Z,13.73
2022-12-18T07:04:51.671Z,12.18
2022-12-18T07:07:13.704Z,13.18
2022-12-18T07:09:35.781Z,13.02
2022-12-18T07:11:57.595Z,13.60
2022-12-18T07:14:20.273Z,12.90
2022-12-18T07:16:42.132Z,13.75
2022-12-18T07:19:04.025Z,13.13
2022-12-18T07:21:26.599Z,14.40
2022-12-18T07:23:49.349Z,13.30
2022-12-18T07:26:14.869Z,12.45
2022-12-18T07:28:38.683Z,13.02
2022-12-18T07:31:22.244Z,13.65
2022-12-18T07:33:45.317Z,12.82
2022-12-18T07:36:09.008Z,13.45
2022-12-18T07:38:32.278Z,12.93
2022-12-18T07:40:54.124Z,12.50
2022-12-18T07:43:16.000Z,13.32
2022-12-18T07:45:37.813Z,12.43
2022-12-18T07:47:59.698Z,12.35
2022-12-18T07:50:21.635Z,13.07
2022-12-18T07:52:43.693Z,13.63
2022-12-18T07:55:06.315Z,13.27
2022-12-18T08:00:12.639Z,14.35
2022-12-18T08:02:35.003Z,12.30
2022-12-18T08:04:57.363Z,12.95
2022-12-18T08:07:19.559Z,12.70
2022-12-18T08:09:41.463Z,12.85
2022-12-18T08:12:03.718Z,13.82
2022-12-18T08:14:25.889Z,13.85
2022-12-18T08:16:47.954Z,13.65
2022-12-18T08:19:09.835Z,13.85
2022-12-18T08:21:32.764Z,15.60
2022-12-18T08:23:57.257Z,13.70
2022-12-18T08:26:20.167Z,14.65
2022-12-18T08:28:43.452Z,15.30
2022-12-18T08:31:06.301Z,14.50
2022-12-18T08:33:28.523Z,15.20
2022-12-18T08:35:50.557Z,14.77
2022-12-18T08:38:12.481Z,12.80
2022-12-18T08:40:34.577Z,13.63
2022-12-18T08:43:15.048Z,13.57
2022-12-18T08:45:37.052Z,15.25
2022-12-18T08:47:58.945Z,13.13
2022-12-18T08:50:21.188Z,13.40
2022-12-18T08:52:43.108Z,13.40
2022-12-18T08:55:05.897Z,14.13
2022-12-18T08:57:27.804Z,12.77
2022-12-18T08:59:50.080Z,13.20
2022-12-18T09:02:12.794Z,14.17
2022-12-18T09:04:35.111Z,13.27
2022-12-18T09:06:57.011Z,13.63
2022-12-18T09:09:19.038Z,13.50
2022-12-18T09:11:40.986Z,13.67
2022-12-18T09:14:03.048Z,13.13
2022-12-18T09:16:32.408Z,13.67
2022-12-18T09:19:00.499Z,12.87
2022-12-18T09:21:22.528Z,19.37
2022-12-18T09:23:51.054Z,17.73
2022-12-18T09:26:12.943Z,19.27
2022-12-18T09:28:34.913Z,14.20
2022-12-18T09:30:57.015Z,16.77
2022-12-18T09:33:19.066Z,40.30
2022-12-18T09:35:44.531Z,23.23
2022-12-18T09:38:09.725Z,15.03
2022-12-18T09:40:42.537Z,13.77
2022-12-18T09:43:12.308Z,14.37
2022-12-18T09:45:48.618Z,14.47
2022-12-18T09:48:29.167Z,12.73
2022-12-18T09:50:58.665Z,13.23
2022-12-18T09:53:29.415Z,12.57
2022-12-18T09:55:55.575Z,13.07
2022-12-18T09:58:45.516Z,12.53
2022-12-18T10:01:24.285Z,14.13
2022-12-18T10:03:46.585Z,12.83
2022-12-18T10:06:38.001Z,12.57
2022-12-18T10:09:50.865Z,11.87
2022-12-18T10:12:33.554Z,12.27
2022-12-18T10:15:17.899Z,14.20
2022-12-18T10:17:51.415Z,18.33
2022-12-18T10:20:36.400Z,13.80
2022-12-18T10:26:10.794Z,12.60
2022-12-18T10:28:38.475Z,11.93
2022-12-18T10:31:18.555Z,12.20
2022-12-18T10:33:42.432Z,12.20
2022-12-18T10:36:07.631Z,11.85
2022-12-18T10:38:33.548Z,11.57
2022-12-18T10:41:04.415Z,12.30
2022-12-18T10:43:34.649Z,12.40
2022-12-18T10:46:09.066Z,12.37
2022-12-18T10:48:35.873Z,11.93
2022-12-18T10:51:10.861Z,11.60
2022-12-18T10:53:38.821Z,12.43
2022-12-18T10:56:05.849Z,12.77
2022-12-18T10:58:38.670Z,12.47
2022-12-18T11:01:19.384Z,11.73
2022-12-18T11:03:45.512Z,15.50
2022-12-18T21:42:27.117Z,20.57
2022-12-18T21:45:31.403Z,21.70
2022-12-18T23:49:12.595Z,23.73
2022-12-18T23:53:05.551Z,24.50
2022-12-18T23:55:31.825Z,24.15
2022-12-18T23:57:55.891Z,23.83
